Jonathan, Idaho
Current Conditions -  °F | °C
As of 8:01 AM on Saturday 22 Nov 2014 (Local Time) from KONO Reporting Station
Haze Haze  
Wind Chill: 24°   Ceiling: Unl
Heat Index: 31°   Visibility: 0.75mi
Dew Point: 29°   Wind: 7mph
Humidity: 92%   Direction: 320°NW
Pressure: 29.73"   Gusts: NA
Location:  44.398°N, 116.943°W
Report Text: KONO 221501Z AUTO 32006KT 3/4SM BR SCT110 M01/M02 A2973 RMK AO2 T10061017
Loading
Personal Weather Stations






























Interactive Weather Map New forecast layout! Learn more

10-Day Weather Forecast

Advertisements
Track Severe Weather on mobile